Time;durP1;ratioP1;P1;durP2;ratioP2;P2;SDS_P1;SDS_P2;PMS_P1;PMS_P2;Temp;Humidity;BMP_temperature;BMP_pressure;BME280_temperature;BME280_humidity;BME280_pressure;Samples;Min_cycle;Max_cycle;Signal;HPM_P1;HPM_P2
2021/07/02 00:01:54;;;;;;;13.25;6.55;;;;;;;15.07;77.41;101583.50;5072211;28;20044;-52
2021/07/02 00:04:21;;;;;;;16.23;8.27;;;;;;;15.02;77.49;101581.56;5071409;28;20044;-50
2021/07/02 00:06:49;;;;;;;15.90;7.80;;;;;;;15.04;77.40;101584.06;5072103;28;20071;-50
2021/07/02 00:09:17;;;;;;;14.35;7.28;;;;;;;15.06;77.49;101581.84;5053812;28;20047;-51
2021/07/02 00:11:44;;;;;;;12.93;7.00;;;;;;;15.05;77.57;101585.69;5071956;28;20064;-51
2021/07/02 00:14:12;;;;;;;12.75;6.40;;;;;;;15.03;77.46;101576.91;5071803;28;20056;-50
2021/07/02 00:16:40;;;;;;;14.68;7.45;;;;;;;15.01;77.25;101571.72;5071698;28;20090;-51
2021/07/02 00:19:08;;;;;;;16.73;8.43;;;;;;;15.03;77.40;101576.91;5067483;28;20041;-49
2021/07/02 00:21:35;;;;;;;13.18;7.47;;;;;;;15.04;77.46;101578.56;5071440;28;20545;-50
2021/07/02 00:24:03;;;;;;;12.88;7.35;;;;;;;15.01;77.18;101574.47;5074967;28;20056;-50
2021/07/02 00:26:31;;;;;;;15.13;8.38;;;;;;;15.02;77.60;101580.75;5075622;28;20070;-50
2021/07/02 00:28:58;;;;;;;14.00;6.90;;;;;;;15.01;77.49;101577.22;5075685;28;20044;-50
2021/07/02 00:31:26;;;;;;;13.45;7.63;;;;;;;15.01;77.66;101568.97;5075334;28;20052;-52
2021/07/02 00:33:54;;;;;;;14.40;8.40;;;;;;;15.01;77.33;101582.69;5075288;28;20119;-50
2021/07/02 00:36:21;;;;;;;15.18;7.28;;;;;;;15.02;77.54;101572.53;5075450;28;20102;-50
2021/07/02 00:38:49;;;;;;;14.45;7.85;;;;;;;15.05;77.66;101574.72;5075257;28;20040;-52
2021/07/02 00:41:17;;;;;;;17.48;8.75;;;;;;;15.03;77.03;101576.91;5049739;28;20066;-51
2021/07/02 00:43:49;;;;;;;17.58;7.93;;;;;;;15.01;77.28;101579.09;5075537;28;20052;-54
2021/07/02 00:46:17;;;;;;;16.00;7.70;;;;;;;15.00;77.32;101578.28;5075054;28;20080;-50
2021/07/02 00:48:45;;;;;;;15.23;7.50;;;;;;;15.01;77.47;101579.09;5075149;28;20064;-53
2021/07/02 00:51:13;;;;;;;15.95;8.05;;;;;;;15.02;77.73;101576.09;5074891;28;20076;-53
2021/07/02 00:53:43;;;;;;;12.27;7.50;;;;;;;15.03;77.81;101576.91;5057498;28;20052;-53
2021/07/02 00:56:17;;;;;;;14.85;7.88;;;;;;;15.05;77.82;101569.22;5057361;28;20061;-53
2021/07/02 00:58:46;;;;;;;15.48;7.55;;;;;;;15.05;77.54;101569.22;5057268;28;20131;-50
2021/07/02 01:01:16;;;;;;;14.65;8.07;;;;;;;15.05;77.30;101574.72;5074390;28;20461;-52
2021/07/02 01:03:50;;;;;;;17.80;8.85;;;;;;;15.05;77.19;101566.47;5056871;28;20083;-53
2021/07/02 01:06:20;;;;;;;11.02;6.75;;;;;;;15.04;77.42;101562.91;5057181;28;20047;-49
2021/07/02 01:08:48;;;;;;;14.60;8.13;;;;;;;15.04;77.04;101567.59;5057024;28;20423;-51
2021/07/02 01:11:16;;;;;;;15.90;7.93;;;;;;;15.06;77.42;101570.88;5040549;28;20059;-50
2021/07/02 01:13:44;;;;;;;15.32;8.05;;;;;;;15.05;77.16;101567.28;5057263;28;20047;-50
2021/07/02 01:16:12;;;;;;;13.32;7.90;;;;;;;15.05;77.13;101569.22;5056270;28;20048;-50
2021/07/02 01:18:40;;;;;;;13.65;8.57;;;;;;;15.03;77.00;101561.28;5056416;28;20044;-49
2021/07/02 01:21:12;;;;;;;15.48;8.15;;;;;;;15.07;77.33;101572.50;5073369;28;20048;-49
2021/07/02 01:23:43;;;;;;;15.13;8.40;;;;;;;15.06;76.63;101571.69;5074702;28;20040;-48
2021/07/02 01:26:12;;;;;;;17.20;8.98;;;;;;;15.06;77.05;101565.38;5057064;28;20484;-49
2021/07/02 01:28:40;;;;;;;14.90;8.20;;;;;;;15.10;77.16;101555.47;5056681;28;20045;-50
2021/07/02 01:31:08;;;;;;;13.90;8.13;;;;;;;15.10;76.48;101571.94;5073997;28;20044;-50
2021/07/02 01:33:37;;;;;;;15.05;8.90;;;;;;;15.07;76.79;101567.84;5056131;28;20040;-48
2021/07/02 01:36:15;;;;;;;12.95;8.65;;;;;;;15.06;76.85;101563.47;5056194;28;20064;-49
2021/07/02 01:38:44;;;;;;;17.13;9.45;;;;;;;15.03;76.72;101561.28;5056377;28;20434;-51
2021/07/02 01:41:14;;;;;;;16.38;9.23;;;;;;;15.03;76.52;101560.44;5074268;28;20036;-48
2021/07/02 01:43:43;;;;;;;15.77;8.93;;;;;;;15.01;76.83;101562.63;5056139;28;20076;-53
2021/07/02 01:46:13;;;;;;;14.65;8.27;;;;;;;15.03;77.05;101557.69;5055745;28;20495;-52
2021/07/02 01:48:42;;;;;;;17.23;10.75;;;;;;;15.02;76.42;101556.06;5056504;28;20457;-53
2021/07/02 01:51:12;;;;;;;14.68;8.48;;;;;;;15.01;76.76;101551.66;5056534;28;20045;-49
2021/07/02 01:53:40;;;;;;;18.38;9.50;;;;;;;15.00;76.69;101558.25;5073837;28;20067;-50
2021/07/02 01:56:09;;;;;;;14.23;8.30;;;;;;;14.99;76.68;101553.88;5056235;28;20048;-50
2021/07/02 01:58:40;;;;;;;15.43;8.98;;;;;;;14.99;76.70;101559.38;5055542;28;20387;-49
2021/07/02 02:01:17;;;;;;;14.90;9.43;;;;;;;15.02;76.56;101558.81;5055981;28;20036;-49
2021/07/02 02:03:47;;;;;;;17.67;10.65;;;;;;;15.02;76.56;101553.31;5056176;28;20053;-50
2021/07/02 02:06:17;;;;;;;21.13;10.85;;;;;;;15.01;76.39;101554.41;5056245;28;20052;-50
2021/07/02 02:08:46;;;;;;;15.30;9.15;;;;;;;15.03;76.61;101549.47;5056097;28;20449;-49
2021/07/02 02:11:15;;;;;;;19.90;10.57;;;;;;;15.04;76.38;101546.44;5056134;28;20052;-50
2021/07/02 02:13:49;;;;;;;17.10;10.13;;;;;;;15.03;76.43;101544.81;5073292;28;20040;-48
2021/07/02 02:16:18;;;;;;;15.55;9.50;;;;;;;15.05;76.43;101550.81;5073911;28;20037;-51
2021/07/02 02:18:52;;;;;;;24.40;10.93;;;;;;;15.05;75.99;101539.03;5055817;28;20048;-48
2021/07/02 02:21:20;;;;;;;18.83;9.50;;;;;;;15.04;76.46;101543.69;5055926;28;20097;-51
2021/07/02 02:23:48;;;;;;;18.42;9.90;;;;;;;15.01;76.11;101546.16;5073844;28;20048;-49
2021/07/02 02:26:17;;;;;;;16.55;9.20;;;;;;;14.99;76.10;101540.97;5055698;28;20079;-49
2021/07/02 02:28:45;;;;;;;15.23;9.70;;;;;;;14.96;75.98;101546.19;5055254;28;20045;-49
2021/07/02 02:31:12;;;;;;;21.20;11.27;;;;;;;14.93;76.41;101547.56;5055676;28;20043;-49
2021/07/02 02:33:42;;;;;;;16.30;8.85;;;;;;;14.94;76.28;101545.69;5055742;28;20063;-51
2021/07/02 02:36:10;;;;;;;19.35;8.73;;;;;;;14.91;76.21;101542.38;5055442;28;20045;-53
2021/07/02 02:38:38;;;;;;;15.75;9.77;;;;;;;14.89;75.95;101536.34;5055125;28;20497;-52
2021/07/02 02:41:06;;;;;;;17.48;9.82;;;;;;;14.87;76.19;101541.28;5055144;28;20080;-53
2021/07/02 02:43:33;;;;;;;17.40;10.02;;;;;;;14.87;76.08;101544.03;5054969;28;20051;-53
2021/07/02 02:46:01;;;;;;;18.17;8.40;;;;;;;14.88;76.19;101537.44;5054072;28;20507;-52
2021/07/02 02:48:30;;;;;;;16.42;9.75;;;;;;;14.89;76.10;101538.28;5055051;28;20042;-51
2021/07/02 02:50:59;;;;;;;17.13;10.35;;;;;;;14.88;75.94;101534.69;5072882;28;20045;-52
2021/07/02 02:53:27;;;;;;;16.25;10.60;;;;;;;14.88;76.05;101526.47;5051682;28;20048;-53
2021/07/02 02:55:55;;;;;;;17.00;10.00;;;;;;;14.90;76.28;101529.75;5036299;28;20067;-51
2021/07/02 02:58:23;;;;;;;15.85;9.55;;;;;;;14.87;76.16;101529.50;5072556;28;20041;-52
2021/07/02 03:00:51;;;;;;;15.35;9.27;;;;;;;14.85;76.09;101532.50;5054944;28;20499;-50
2021/07/02 03:03:20;;;;;;;18.08;10.48;;;;;;;14.84;76.15;101536.38;5072365;28;20506;-50
2021/07/02 03:06:07;;;;;;;17.20;9.98;;;;;;;14.85;76.06;101537.19;5054971;28;20048;-52
2021/07/02 03:08:35;;;;;;;16.13;9.13;;;;;;;14.87;76.08;101535.00;5072685;28;20045;-51
2021/07/02 03:11:03;;;;;;;17.92;10.63;;;;;;;14.85;75.75;101535.25;5072704;28;20090;-51
2021/07/02 03:13:31;;;;;;;13.88;9.15;;;;;;;14.83;75.89;101539.38;5072414;28;20036;-49
2021/07/02 03:15:59;;;;;;;18.00;11.02;;;;;;;14.76;75.95;101531.44;5054562;28;20037;-51
2021/07/02 03:18:30;;;;;;;18.42;8.75;;;;;;;14.75;76.63;101542.72;5072232;28;20135;-51
2021/07/02 03:20:58;;;;;;;18.88;8.73;;;;;;;14.74;76.33;101539.13;5054721;28;20041;-54
2021/07/02 03:23:26;;;;;;;19.85;11.43;;;;;;;14.72;76.28;101541.34;5054676;28;20044;-50
2021/07/02 03:25:54;;;;;;;16.45;9.98;;;;;;;14.70;76.46;101538.06;5072069;28;20037;-51
2021/07/02 03:28:22;;;;;;;16.65;9.50;;;;;;;14.70;76.76;101543.53;5072282;28;20048;-50
2021/07/02 03:30:50;;;;;;;15.93;9.55;;;;;;;14.69;76.41;101541.88;5054268;28;20048;-50
2021/07/02 03:33:18;;;;;;;17.17;10.02;;;;;;;14.70;76.87;101533.38;5054594;28;20044;-50
2021/07/02 03:35:47;;;;;;;14.48;9.15;;;;;;;14.72;76.54;101541.34;5054651;28;20100;-51
2021/07/02 03:38:16;;;;;;;17.05;10.45;;;;;;;14.72;76.69;101549.56;5054497;28;20219;-52
2021/07/02 03:40:44;;;;;;;17.23;10.32;;;;;;;14.72;76.73;101549.56;5071636;28;20040;-49
2021/07/02 03:43:12;;;;;;;17.42;10.02;;;;;;;14.69;76.42;101550.94;5054059;28;20466;-50
2021/07/02 03:45:40;;;;;;;17.25;10.55;;;;;;;14.68;76.63;101549.28;5054154;28;20072;-52
2021/07/02 03:48:07;;;;;;;16.20;9.07;;;;;;;14.70;76.80;101546.28;5053629;28;20099;-52
2021/07/02 03:50:38;;;;;;;18.48;10.55;;;;;;;14.69;76.66;101553.66;5054367;28;20052;-51
2021/07/02 03:53:06;;;;;;;16.05;8.68;;;;;;;14.69;76.95;101552.84;5054298;28;20045;-50
2021/07/02 03:55:33;;;;;;;17.63;9.52;;;;;;;14.73;76.66;101553.13;5071519;28;20060;-52
2021/07/02 03:58:01;;;;;;;13.98;8.50;;;;;;;14.72;76.85;101555.06;5054246;28;20572;-54
2021/07/02 04:00:29;;;;;;;16.52;10.15;;;;;;;14.72;76.82;101555.06;5054100;28;20044;-52
2021/07/02 04:02:57;;;;;;;16.67;9.43;;;;;;;14.72;76.91;101551.47;5072152;28;20571;-51
2021/07/02 04:05:24;;;;;;;15.85;8.63;;;;;;;14.73;76.94;101553.13;5072036;28;20068;-49
2021/07/02 04:07:52;;;;;;;14.90;8.32;;;;;;;14.77;76.85;101555.03;5072045;28;20037;-49
2021/07/02 04:10:19;;;;;;;14.63;9.05;;;;;;;14.79;76.97;101555.59;5071217;28;20114;-50
2021/07/02 04:12:47;;;;;;;16.60;8.75;;;;;;;14.79;76.52;101552.84;5071992;28;20110;-49
2021/07/02 04:15:15;;;;;;;15.55;9.35;;;;;;;14.76;76.64;101561.63;5045529;28;20049;-48
2021/07/02 04:17:42;;;;;;;15.93;10.13;;;;;;;14.75;76.79;101560.00;5072115;28;20048;-49
2021/07/02 04:20:12;;;;;;;15.73;9.10;;;;;;;14.77;76.87;101559.69;5071634;28;20064;-47
2021/07/02 04:22:39;;;;;;;13.65;8.50;;;;;;;14.77;76.77;101551.47;5071964;28;20071;-49
2021/07/02 04:25:09;;;;;;;15.63;8.45;;;;;;;14.77;76.48;101555.03;5071139;28;20124;-48
2021/07/02 04:27:38;;;;;;;15.20;9.88;;;;;;;14.77;76.58;101562.44;5071297;28;20044;-49
2021/07/02 04:30:08;;;;;;;13.07;7.90;;;;;;;14.79;76.60;101550.09;5053209;28;20458;-50
2021/07/02 04:32:36;;;;;;;14.98;9.48;;;;;;;14.77;76.46;101552.31;5071580;28;20041;-49
2021/07/02 04:35:09;;;;;;;17.50;9.18;;;;;;;14.80;76.53;101557.22;5071833;28;20040;-50
2021/07/02 04:37:37;;;;;;;17.00;8.45;;;;;;;14.78;76.29;101553.94;5071474;28;20052;-50
2021/07/02 04:40:08;;;;;;;16.25;9.95;;;;;;;14.76;76.33;101547.91;5071078;28;20047;-50
2021/07/02 04:42:36;;;;;;;18.95;10.55;;;;;;;14.77;76.60;101557.78;5071440;28;20502;-48
2021/07/02 04:45:05;;;;;;;20.92;9.93;;;;;;;14.78;76.43;101559.41;5071455;28;20077;-49
2021/07/02 04:47:32;;;;;;;18.45;9.48;;;;;;;14.80;76.32;101554.47;5071747;28;20056;-50
2021/07/02 04:50:01;;;;;;;14.73;8.63;;;;;;;14.82;76.33;101552.28;5071513;28;20041;-47
2021/07/02 04:52:28;;;;;;;17.02;9.85;;;;;;;14.84;76.14;101550.09;5071335;28;20049;-48
2021/07/02 04:54:56;;;;;;;16.65;9.30;;;;;;;14.84;76.16;101550.09;5070959;28;20449;-49
2021/07/02 04:57:24;;;;;;;15.40;8.95;;;;;;;14.87;76.45;101551.44;5071748;28;20090;-49
2021/07/02 04:59:51;;;;;;;14.20;8.88;;;;;;;14.89;76.42;101550.06;5071186;28;20446;-48
2021/07/02 05:02:19;;;;;;;13.80;8.13;;;;;;;14.93;76.42;101549.50;5071529;28;20110;-44
2021/07/02 05:04:46;;;;;;;12.05;6.35;;;;;;;15.00;76.51;101550.03;5071475;28;20503;-50
2021/07/02 05:07:14;;;;;;;12.95;7.78;;;;;;;15.03;75.90;101552.22;5071058;28;20057;-50
2021/07/02 05:09:42;;;;;;;14.95;8.80;;;;;;;14.98;75.69;101549.47;5072160;28;20052;-51
2021/07/02 05:12:11;;;;;;;14.90;8.70;;;;;;;14.95;75.70;101544.56;5056694;28;20078;-48
2021/07/02 05:14:39;;;;;;;13.75;8.13;;;;;;;15.01;76.13;101557.16;5074564;28;20044;-49
2021/07/02 05:17:09;;;;;;;13.40;8.45;;;;;;;15.03;75.68;101554.94;5074925;28;20037;-48
2021/07/02 05:19:41;;;;;;;16.13;9.13;;;;;;;15.08;75.47;101560.41;5074999;28;20556;-48
2021/07/02 05:22:13;;;;;;;16.50;7.40;;;;;;;15.04;75.80;101551.94;5073780;28;20106;-48
2021/07/02 05:24:41;;;;;;;14.52;8.57;;;;;;;15.12;75.77;101564.25;5056287;28;20525;-51
2021/07/02 05:27:10;;;;;;;15.07;8.05;;;;;;;15.10;75.74;101561.81;5074157;28;20495;-48
2021/07/02 05:29:38;;;;;;;21.23;9.32;;;;;;;15.06;75.52;101554.41;5074606;28;20036;-49
2021/07/02 05:32:06;;;;;;;14.02;8.45;;;;;;;15.05;75.35;101556.31;5074617;28;20106;-49
2021/07/02 05:34:34;;;;;;;13.85;7.90;;;;;;;15.06;75.22;101559.91;5074485;28;20044;-53
2021/07/02 05:37:02;;;;;;;13.43;7.63;;;;;;;15.12;75.28;101558.75;5056441;28;20036;-53
2021/07/02 05:39:30;;;;;;;15.32;8.18;;;;;;;15.13;75.51;101563.97;5074933;28;20044;-47
2021/07/02 05:41:58;;;;;;;16.00;9.82;;;;;;;15.08;75.19;101564.00;5056822;28;20072;-53
2021/07/02 05:44:26;;;;;;;15.02;9.07;;;;;;;15.07;75.23;101569.78;5074559;28;20094;-52
2021/07/02 05:46:54;;;;;;;13.82;7.40;;;;;;;15.07;75.58;101567.03;5074074;28;20415;-52
2021/07/02 05:49:22;;;;;;;11.18;7.22;;;;;;;15.11;75.83;101568.13;5074138;28;20044;-52
2021/07/02 05:51:50;;;;;;;14.52;8.43;;;;;;;15.19;75.64;101575.75;5055511;28;20048;-52
2021/07/02 05:54:18;;;;;;;15.00;7.05;;;;;;;15.22;75.38;101569.69;5074157;28;20048;-51
2021/07/02 05:57:05;;;;;;;15.22;8.28;;;;;;;15.30;75.50;101569.13;5052821;28;10000652;-47
2021/07/02 05:59:32;;;;;;;15.23;7.35;;;;;;;15.30;74.53;101571.88;5064545;28;20261;-50
2021/07/02 06:02:00;;;;;;;14.18;8.13;;;;;;;15.28;74.67;101571.34;5071552;28;20040;-54
2021/07/02 06:04:27;;;;;;;15.90;8.77;;;;;;;15.33;74.60;101582.28;5071508;28;20081;-51
2021/07/02 06:06:55;;;;;;;15.98;7.85;;;;;;;15.36;74.38;101583.66;5071154;28;20039;-52
2021/07/02 06:09:23;;;;;;;16.85;8.73;;;;;;;15.39;73.93;101579.50;5071050;28;20127;-51
2021/07/02 06:11:51;;;;;;;14.15;6.97;;;;;;;15.40;74.29;101586.66;5071387;28;20568;-49
2021/07/02 06:14:19;;;;;;;13.18;7.03;;;;;;;15.40;73.76;101586.66;5071292;28;20144;-53
2021/07/02 06:16:47;;;;;;;17.77;8.95;;;;;;;15.47;74.04;101588.00;5053609;28;20056;-51
2021/07/02 06:19:14;;;;;;;14.30;6.30;;;;;;;15.53;73.77;101578.59;5071436;28;20040;-53
2021/07/02 06:21:44;;;;;;;15.23;7.72;;;;;;;15.60;73.42;101586.53;5070445;28;20056;-49
2021/07/02 06:24:12;;;;;;;15.38;8.48;;;;;;;15.59;73.45;101584.09;5070945;28;20052;-54
2021/07/02 06:26:39;;;;;;;14.90;7.30;;;;;;;15.58;73.45;101582.44;5071207;28;20065;-49
2021/07/02 06:29:07;;;;;;;10.38;5.82;;;;;;;15.54;73.48;101583.03;5071053;28;20044;-50
2021/07/02 06:31:35;;;;;;;12.27;6.85;;;;;;;15.53;73.36;101586.03;5049460;28;20120;-52
2021/07/02 06:34:03;;;;;;;18.40;10.57;;;;;;;15.51;73.06;101586.34;5068834;28;20074;-54
2021/07/02 06:36:31;;;;;;;17.60;10.40;;;;;;;15.52;73.02;101587.16;5070592;28;20384;-52
2021/07/02 06:38:58;;;;;;;19.48;11.80;;;;;;;15.46;72.78;101589.09;5070749;28;20068;-50
2021/07/02 06:41:26;;;;;;;20.67;12.05;;;;;;;15.42;73.11;101589.97;5070924;28;20553;-50
2021/07/02 06:43:53;;;;;;;21.02;12.27;;;;;;;15.39;72.93;101590.50;5070532;28;20130;-55
2021/07/02 06:46:21;;;;;;;21.42;13.02;;;;;;;15.36;72.99;101589.13;5070312;28;20044;-49
2021/07/02 06:48:49;;;;;;;22.50;13.00;;;;;;;15.34;72.81;101594.94;5070052;28;20056;-50
2021/07/02 06:51:16;;;;;;;23.60;12.68;;;;;;;15.36;72.46;101585.56;5070275;28;20118;-49
2021/07/02 06:53:44;;;;;;;23.33;13.20;;;;;;;15.38;72.72;101591.63;5070456;28;20064;-50
2021/07/02 06:56:14;;;;;;;22.75;14.18;;;;;;;15.38;72.41;101594.34;5070453;28;20529;-49
2021/07/02 06:58:42;;;;;;;15.27;10.02;;;;;;;15.43;72.49;101597.91;5069639;28;20368;-51
2021/07/02 07:01:10;;;;;;;17.92;10.63;;;;;;;15.40;72.57;101597.66;5070589;28;20040;-50
2021/07/02 07:03:38;;;;;;;23.95;12.57;;;;;;;15.45;73.10;101603.94;5072150;28;20045;-50
2021/07/02 07:06:05;;;;;;;22.15;13.82;;;;;;;15.40;73.06;101603.97;5072940;28;20431;-54
2021/07/02 07:08:33;;;;;;;18.20;10.50;;;;;;;15.38;73.21;101606.16;5072378;28;20522;-50
2021/07/02 07:11:01;;;;;;;18.17;11.32;;;;;;;15.41;72.82;101602.03;5072314;28;20040;-50
2021/07/02 07:13:29;;;;;;;19.13;10.80;;;;;;;15.46;72.70;101600.06;5072049;28;20414;-48
2021/07/02 07:15:56;;;;;;;24.67;13.85;;;;;;;15.51;72.75;101605.56;5054358;28;20052;-50
2021/07/02 07:18:24;;;;;;;16.05;9.23;;;;;;;15.54;72.61;101599.50;5071686;28;20041;-51
2021/07/02 07:20:52;;;;;;;19.27;12.82;;;;;;;15.62;72.18;101600.00;5072258;28;20043;-48
2021/07/02 07:23:19;;;;;;;23.05;13.07;;;;;;;15.62;71.35;101611.81;5072357;28;20060;-49
2021/07/02 07:25:48;;;;;;;18.88;12.63;;;;;;;15.61;70.71;101610.19;5068723;28;20043;-52
2021/07/02 07:28:16;;;;;;;23.92;11.73;;;;;;;15.65;71.14;101608.50;5071948;28;20041;-52
2021/07/02 07:30:44;;;;;;;46.75;14.25;;;;;;;15.76;71.30;101601.06;5071804;28;20038;-51
2021/07/02 07:33:11;;;;;;;32.67;13.13;;;;;;;15.81;70.89;101613.94;5070957;28;20499;-52
2021/07/02 07:35:42;;;;;;;24.23;12.30;;;;;;;15.75;69.28;101611.25;5071973;28;20052;-51
2021/07/02 07:38:10;;;;;;;18.33;10.85;;;;;;;15.68;69.32;101610.69;5072149;28;20041;-51
2021/07/02 07:40:38;;;;;;;21.05;9.48;;;;;;;15.67;69.79;101611.78;5071892;28;20098;-49
2021/07/02 07:43:05;;;;;;;16.70;10.23;;;;;;;15.63;69.31;101613.44;5070960;28;20040;-50
2021/07/02 07:45:33;;;;;;;18.27;10.02;;;;;;;15.61;69.90;101612.94;5071709;28;20048;-49
2021/07/02 07:48:01;;;;;;;18.92;9.70;;;;;;;15.60;69.84;101616.75;5068542;28;20053;-52
2021/07/02 07:50:33;;;;;;;17.77;9.13;;;;;;;15.66;70.35;101623.06;5058385;28;20044;-52
2021/07/02 07:53:01;;;;;;;28.10;10.60;;;;;;;15.62;70.38;101617.31;5071542;28;20048;-48
2021/07/02 07:55:30;;;;;;;19.27;9.68;;;;;;;15.62;70.53;101622.81;5071260;28;20113;-49
2021/07/02 07:57:58;;;;;;;16.60;9.52;;;;;;;15.61;70.47;101628.56;5075230;28;20437;-52
2021/07/02 08:00:26;;;;;;;20.33;8.57;;;;;;;15.62;71.24;101622.81;5071811;28;20037;-51
2021/07/02 08:02:54;;;;;;;18.65;9.32;;;;;;;15.69;71.60;101628.81;5071347;28;20072;-53
2021/07/02 08:05:21;;;;;;;17.38;10.02;;;;;;;15.66;71.07;101631.31;5070769;28;20044;-49
2021/07/02 08:07:49;;;;;;;19.15;10.55;;;;;;;15.62;70.70;101631.03;5071402;28;20106;-50
2021/07/02 08:10:18;;;;;;;21.17;11.85;;;;;;;15.62;70.70;101635.72;5070056;28;20048;-52
2021/07/02 08:12:46;;;;;;;20.60;11.15;;;;;;;15.64;70.51;101626.09;5069915;28;20522;-50
2021/07/02 08:15:16;;;;;;;22.13;11.13;;;;;;;15.64;70.64;101631.59;5071045;28;20052;-52
2021/07/02 08:17:43;;;;;;;15.18;7.93;;;;;;;15.67;71.35;101633.75;5050498;28;20106;-51
2021/07/02 08:20:12;;;;;;;14.52;6.90;;;;;;;15.79;72.44;101638.97;5070778;28;20049;-50
2021/07/02 08:22:40;;;;;;;22.02;11.07;;;;;;;15.98;72.04;101636.38;5071651;28;20036;-53
2021/07/02 08:25:09;;;;;;;15.52;7.25;;;;;;;15.96;72.98;101631.16;5070771;28;20053;-51
2021/07/02 08:30:23;;;;;;;18.50;8.82;;;;;;;16.02;73.26;101637.47;5071242;28;20125;-53
2021/07/02 08:32:51;;;;;;;17.77;6.47;;;;;;;16.06;73.30;101638.50;5071063;28;20045;-51
2021/07/02 08:35:21;;;;;;;13.27;8.18;;;;;;;16.01;73.10;101633.06;5071427;28;20037;-48
2021/07/02 08:37:51;;;;;;;23.77;11.80;;;;;;;15.93;73.03;101634.47;5054132;28;20064;-49
2021/07/02 08:40:20;;;;;;;20.05;10.70;;;;;;;15.91;73.96;101638.63;5071293;28;20075;-50
2021/07/02 08:42:48;;;;;;;24.92;11.80;;;;;;;15.93;73.51;101633.66;5071327;28;20163;-53
2021/07/02 08:45:16;;;;;;;22.80;11.27;;;;;;;15.97;73.17;101640.25;5073121;28;20114;-50
2021/07/02 08:47:44;;;;;;;16.70;10.55;;;;;;;16.00;73.08;101636.91;5074802;28;20388;-49
2021/07/02 08:50:13;;;;;;;22.25;11.43;;;;;;;16.06;73.04;101632.19;5074472;28;20052;-51
2021/07/02 08:52:41;;;;;;;24.95;14.13;;;;;;;16.01;72.42;101638.56;5074997;28;20045;-51
2021/07/02 08:55:12;;;;;;;23.42;11.20;;;;;;;16.02;72.63;101637.47;5074471;28;20040;-52
2021/07/02 08:57:40;;;;;;;27.23;15.88;;;;;;;16.05;73.05;101642.38;5075174;28;20044;-48
2021/07/02 09:00:10;;;;;;;23.50;14.40;;;;;;;16.05;73.12;101639.63;5074413;28;20076;-51
2021/07/02 09:02:40;;;;;;;24.10;14.48;;;;;;;16.07;73.08;101640.16;5074750;28;20442;-51
2021/07/02 09:05:34;;;;;;;20.50;12.70;;;;;;;16.10;72.90;101645.09;5074618;28;20056;-50
2021/07/02 09:08:13;;;;;;;20.52;11.88;;;;;;;16.22;73.18;101641.16;5055164;28;20132;-53
2021/07/02 09:10:45;;;;;;;26.58;16.20;;;;;;;16.30;72.73;101643.31;5060790;28;20513;-49
2021/07/02 09:13:14;;;;;;;23.85;14.73;;;;;;;16.21;73.04;101648.59;5074187;28;20130;-48
2021/07/02 09:15:47;;;;;;;12.90;6.47;;;;;;;16.25;73.38;101646.09;5073858;28;20044;-48
2021/07/02 09:18:16;;;;;;;16.92;9.68;;;;;;;16.28;73.51;101651.81;5056835;28;20041;-50
2021/07/02 09:20:45;;;;;;;20.55;12.65;;;;;;;16.25;73.44;101651.59;5074006;28;20094;-50
2021/07/02 09:23:16;;;;;;;26.38;16.75;;;;;;;16.17;74.33;101653.03;5074782;28;20104;-52
2021/07/02 09:25:52;;;;;;;29.60;17.38;;;;;;;16.08;75.19;101652.78;5073776;28;20042;-52
2021/07/02 09:28:27;;;;;;;28.48;17.38;;;;;;;16.04;75.58;101651.72;5066686;28;20058;-48
2021/07/02 09:30:55;;;;;;;41.72;18.33;;;;;;;16.04;76.38;101646.22;5074084;28;20044;-52
2021/07/02 09:33:25;;;;;;;30.42;18.67;;;;;;;16.04;76.45;101657.22;5056677;28;20045;-48
2021/07/02 09:35:59;;;;;;;35.58;21.80;;;;;;;15.99;76.11;101660.00;5073880;28;20449;-51
2021/07/02 09:38:38;;;;;;;33.05;20.65;;;;;;;15.96;76.77;101677.06;5060847;28;20048;-50
2021/07/02 09:41:08;;;;;;;27.95;17.73;;;;;;;15.95;76.86;101667.19;5073643;28;20047;-49
2021/07/02 09:43:38;;;;;;;32.20;20.45;;;;;;;15.95;76.92;101664.44;5073578;28;20090;-50
2021/07/02 09:46:07;;;;;;;30.35;20.25;;;;;;;15.96;76.79;101675.13;5073810;28;20507;-49
2021/07/02 09:48:43;;;;;;;34.42;20.10;;;;;;;15.95;77.42;101683.69;5073837;28;20052;-50
2021/07/02 09:51:12;;;;;;;32.67;20.45;;;;;;;15.93;77.75;101683.94;5073566;28;20044;-47
2021/07/02 09:53:40;;;;;;;29.48;20.42;;;;;;;15.93;77.72;101685.88;5073707;28;20055;-49
2021/07/02 09:56:21;;;;;;;32.72;20.95;;;;;;;15.94;77.98;101682.00;5073054;28;20395;-50
2021/07/02 09:58:48;;;;;;;37.10;21.98;;;;;;;15.93;78.04;101689.44;5073077;28;20499;-49
2021/07/02 10:01:27;;;;;;;36.65;22.00;;;;;;;15.90;78.28;101690.03;5073558;28;20072;-51
2021/07/02 10:04:06;;;;;;;35.65;22.15;;;;;;;15.87;78.68;101695.25;5073596;28;20048;-49
2021/07/02 10:06:33;;;;;;;34.75;20.15;;;;;;;15.90;79.47;101700.19;5073799;28;20044;-48
2021/07/02 10:09:04;;;;;;;34.08;20.90;;;;;;;15.90;79.55;101702.94;5073771;28;20033;-49
2021/07/02 10:11:37;;;;;;;28.20;16.58;;;;;;;15.96;79.67;101701.81;5073086;28;20487;-49
2021/07/02 10:14:05;;;;;;;33.45;21.38;;;;;;;16.00;79.97;101705.63;5054319;28;20442;-51
2021/07/02 10:16:34;;;;;;;39.20;24.20;;;;;;;15.98;80.05;101711.41;5056718;28;20041;-48
2021/07/02 10:19:03;;;;;;;39.10;22.85;;;;;;;15.94;80.31;101715.81;5055988;28;20055;-50
2021/07/02 10:21:31;;;;;;;35.20;21.67;;;;;;;15.92;80.94;101715.31;5073046;28;20442;-52
2021/07/02 10:24:02;;;;;;;36.25;23.38;;;;;;;15.90;80.90;101716.69;5072789;28;20046;-45
2021/07/02 10:26:33;;;;;;;40.30;22.05;;;;;;;15.89;80.97;101715.84;5072491;28;20053;-48
2021/07/02 10:29:01;;;;;;;39.22;23.38;;;;;;;15.85;81.59;101722.19;5073008;28;20052;-49
2021/07/02 10:31:29;;;;;;;40.63;23.73;;;;;;;15.83;81.72;101721.66;5072893;28;20044;-50
2021/07/02 10:34:00;;;;;;;28.67;18.40;;;;;;;15.84;81.93;101726.03;4349179;28;10000455;-47
2021/07/02 10:36:39;;;;;;;37.95;23.33;;;;;;;15.83;81.84;101725.22;5064118;28;20478;-48
2021/07/02 10:39:31;;;;;;;33.95;21.38;;;;;;;15.81;82.01;101719.19;5052361;28;20076;-52
2021/07/02 10:42:09;;;;;;;38.22;24.30;;;;;;;15.84;82.62;101723.31;5070341;28;20037;-50
2021/07/02 10:45:02;;;;;;;29.95;18.23;;;;;;;15.90;81.91;101722.19;5070676;28;20056;-51
2021/07/02 10:47:49;;;;;;;37.00;22.27;;;;;;;15.96;82.07;101718.28;4988552;28;20066;-50
2021/07/02 10:50:40;;;;;;;33.83;21.70;;;;;;;16.01;82.43;101726.50;4988721;28;20125;-50
2021/07/02 10:53:23;;;;;;;43.60;29.05;;;;;;;16.01;81.97;101718.25;4988078;28;20054;-51
2021/07/02 10:55:51;;;;;;;35.30;21.02;;;;;;;16.03;82.12;101726.25;4978036;28;20049;-49
2021/07/02 10:58:21;;;;;;;41.78;26.95;;;;;;;16.04;81.58;101722.38;4987923;28;20521;-51
2021/07/02 11:01:08;;;;;;;37.00;22.45;;;;;;;16.07;81.38;101724.59;4988530;28;20056;-49
2021/07/02 11:03:36;;;;;;;27.02;13.68;;;;;;;16.15;80.92;101718.47;4988203;28;20042;-50
2021/07/02 11:06:38;;;;;;;39.53;25.60;;;;;;;16.22;80.81;101721.72;4988518;28;20580;-51
2021/07/02 11:09:07;;;;;;;31.33;18.42;;;;;;;16.27;80.39;101718.94;4929594;29;20054;-51
2021/07/02 11:12:09;;;;;;;28.55;17.98;;;;;;;16.37;79.21;101716.13;4929928;29;20059;-51
2021/07/02 11:14:52;;;;;;;36.30;25.67;;;;;;;16.24;79.78;101726.97;4930358;29;20757;-50
2021/07/02 11:17:22;;;;;;;41.20;26.55;;;;;;;16.19;80.29;101725.06;4941239;29;20051;-53
2021/07/02 11:22:43;;;;;;;37.60;22.98;;;;;;;16.14;80.67;101728.66;4930005;29;20127;-52
2021/07/02 11:25:25;;;;;;;44.28;25.88;;;;;;;16.23;80.17;101730.78;4989035;28;20058;-52
2021/07/02 11:28:03;;;;;;;27.23;16.63;;;;;;;16.24;80.43;101732.47;5007696;28;20513;-51
2021/07/02 11:33:08;;;;;;;40.30;25.55;;;;;;;16.24;80.54;101730.53;4987867;28;20086;-55
2021/07/02 11:35:44;;;;;;;47.88;26.05;;;;;;;16.26;80.51;101724.72;5007732;28;20137;-51